sensor_id;sensor_type;location;lat;lon;timestamp;pressure;altitude;pressure_sealevel;temperature;humidity
9423;BME280;65863;49.506;10.400;2023-07-13T00:01:22;97840.06;;;18.41;67.93
9423;BME280;65863;49.506;10.400;2023-07-13T00:04:07;97845.84;;;18.31;68.41
9423;BME280;65863;49.506;10.400;2023-07-13T00:06:52;97864.53;;;18.34;68.87
9423;BME280;65863;49.506;10.400;2023-07-13T00:09:37;97824.66;;;18.11;69.07
9423;BME280;65863;49.506;10.400;2023-07-13T00:12:40;97817.81;;;18.04;69.37
9423;BME280;65863;49.506;10.400;2023-07-13T00:15:25;97838.81;;;18.32;69.31
9423;BME280;65863;49.506;10.400;2023-07-13T00:18:28;97826.53;;;18.18;69.20
9423;BME280;65863;49.506;10.400;2023-07-13T00:21:13;97840.50;;;18.26;69.38
9423;BME280;65863;49.506;10.400;2023-07-13T00:24:15;97842.97;;;18.19;69.42
9423;BME280;65863;49.506;10.400;2023-07-13T00:27:25;97849.94;;;18.06;69.70
9423;BME280;65863;49.506;10.400;2023-07-13T00:30:11;97789.31;;;17.59;70.07
9423;BME280;65863;49.506;10.400;2023-07-13T00:33:14;97832.41;;;17.88;70.60
9423;BME280;65863;49.506;10.400;2023-07-13T00:35:58;97792.03;;;17.57;70.55
9423;BME280;65863;49.506;10.400;2023-07-13T00:38:44;97805.13;;;17.62;70.74
9423;BME280;65863;49.506;10.400;2023-07-13T00:41:28;97841.00;;;17.79;70.81
9423;BME280;65863;49.506;10.400;2023-07-13T00:44:31;97811.06;;;17.44;70.89
9423;BME280;65863;49.506;10.400;2023-07-13T00:47:15;97825.78;;;17.52;71.07
9423;BME280;65863;49.506;10.400;2023-07-13T00:50:20;97806.66;;;17.31;71.33
9423;BME280;65863;49.506;10.400;2023-07-13T00:53:05;97837.81;;;17.41;71.67
9423;BME280;65863;49.506;10.400;2023-07-13T00:55:50;97860.47;;;17.51;71.95
9423;BME280;65863;49.506;10.400;2023-07-13T00:58:35;97868.47;;;17.54;72.06
9423;BME280;65863;49.506;10.400;2023-07-13T01:01:26;97842.44;;;17.36;72.04
9423;BME280;65863;49.506;10.400;2023-07-13T01:04:10;97825.75;;;17.31;72.28
9423;BME280;65863;49.506;10.400;2023-07-13T01:06:55;97865.28;;;17.38;72.22
9423;BME280;65863;49.506;10.400;2023-07-13T01:09:59;97832.88;;;17.10;72.54
9423;BME280;65863;49.506;10.400;2023-07-13T01:12:43;97842.91;;;17.01;72.57
9423;BME280;65863;49.506;10.400;2023-07-13T01:15:42;97881.50;;;17.16;72.79
9423;BME280;65863;49.506;10.400;2023-07-13T01:18:46;97845.91;;;16.84;73.07
9423;BME280;65863;49.506;10.400;2023-07-13T01:21:52;97814.38;;;16.58;73.04
9423;BME280;65863;49.506;10.400;2023-07-13T01:24:38;97861.16;;;16.89;73.38
9423;BME280;65863;49.506;10.400;2023-07-13T01:27:42;97813.63;;;16.58;73.50
9423;BME280;65863;49.506;10.400;2023-07-13T01:30:27;97814.41;;;16.48;73.36
9423;BME280;65863;49.506;10.400;2023-07-13T01:33:19;97848.22;;;16.66;73.58
9423;BME280;65863;49.506;10.400;2023-07-13T01:36:03;97858.06;;;16.65;73.78
9423;BME280;65863;49.506;10.400;2023-07-13T01:38:47;97836.03;;;16.44;73.94
9423;BME280;65863;49.506;10.400;2023-07-13T01:41:50;97856.88;;;16.48;74.13
9423;BME280;65863;49.506;10.400;2023-07-13T01:44:53;97885.97;;;16.49;74.29
9423;BME280;65863;49.506;10.400;2023-07-13T01:47:56;97851.13;;;16.17;74.72
9423;BME280;65863;49.506;10.400;2023-07-13T01:50:40;97878.81;;;16.28;74.69
9423;BME280;65863;49.506;10.400;2023-07-13T01:53:43;97851.56;;;15.94;74.99
9423;BME280;65863;49.506;10.400;2023-07-13T01:56:27;97862.00;;;16.01;75.13
9423;BME280;65863;49.506;10.400;2023-07-13T01:59:30;97879.88;;;16.13;75.25
9423;BME280;65863;49.506;10.400;2023-07-13T02:02:16;97868.25;;;15.90;75.27
9423;BME280;65863;49.506;10.400;2023-07-13T02:05:00;97860.47;;;15.80;75.33
9423;BME280;65863;49.506;10.400;2023-07-13T02:07:45;97865.81;;;15.66;75.36
9423;BME280;65863;49.506;10.400;2023-07-13T02:10:28;97852.25;;;15.65;75.43
9423;BME280;65863;49.506;10.400;2023-07-13T02:13:13;97881.44;;;15.77;74.97
9423;BME280;65863;49.506;10.400;2023-07-13T02:15:57;97858.19;;;15.59;75.04
9423;BME280;65863;49.506;10.400;2023-07-13T02:19:00;97882.22;;;15.78;74.65
9423;BME280;65863;49.506;10.400;2023-07-13T02:22:03;97848.94;;;15.59;74.27
9423;BME280;65863;49.506;10.400;2023-07-13T02:25:06;97883.53;;;15.77;73.94
9423;BME280;65863;49.506;10.400;2023-07-13T02:27:51;97844.03;;;15.49;73.73
9423;BME280;65863;49.506;10.400;2023-07-13T02:30:47;97883.13;;;15.80;73.15
9423;BME280;65863;49.506;10.400;2023-07-13T02:33:31;97863.13;;;15.78;72.65
9423;BME280;65863;49.506;10.400;2023-07-13T02:36:15;97879.56;;;15.90;72.21
9423;BME280;65863;49.506;10.400;2023-07-13T02:39:04;97873.44;;;15.93;71.62
9423;BME280;65863;49.506;10.400;2023-07-13T02:41:48;97825.41;;;15.56;70.87
9423;BME280;65863;49.506;10.400;2023-07-13T02:44:33;97897.91;;;16.08;70.37
9423;BME280;65863;49.506;10.400;2023-07-13T02:47:16;97840.19;;;15.74;70.04
9423;BME280;65863;49.506;10.400;2023-07-13T02:50:01;97895.69;;;16.16;69.42
9423;BME280;65863;49.506;10.400;2023-07-13T02:52:45;97879.72;;;16.01;68.90
9423;BME280;65863;49.506;10.400;2023-07-13T02:55:29;97863.13;;;15.78;68.38
9423;BME280;65863;49.506;10.400;2023-07-13T02:58:14;97840.34;;;15.66;68.42
9423;BME280;65863;49.506;10.400;2023-07-13T03:01:06;97894.03;;;16.04;68.21
9423;BME280;65863;49.506;10.400;2023-07-13T03:03:51;97903.72;;;16.10;68.10
9423;BME280;65863;49.506;10.400;2023-07-13T03:06:37;97876.72;;;15.80;67.96
9423;BME280;65863;49.506;10.400;2023-07-13T03:09:24;97871.47;;;15.66;68.58
9423;BME280;65863;49.506;10.400;2023-07-13T03:12:10;97751.00;;;14.60;69.31
9423;BME280;65863;49.506;10.400;2023-07-13T03:14:54;97914.50;;;15.28;70.09
9423;BME280;65863;49.506;10.400;2023-07-13T03:17:40;97866.59;;;14.93;70.88
9423;BME280;65863;49.506;10.400;2023-07-13T03:20:26;97903.72;;;15.17;71.44
9423;BME280;65863;49.506;10.400;2023-07-13T03:23:10;97889.94;;;14.93;71.80
9423;BME280;65863;49.506;10.400;2023-07-13T03:26:20;97922.84;;;14.98;72.27
9423;BME280;65863;49.506;10.400;2023-07-13T03:29:05;97943.44;;;15.09;72.60
9423;BME280;65863;49.506;10.400;2023-07-13T03:31:49;97931.47;;;15.01;72.72
9423;BME280;65863;49.506;10.400;2023-07-13T03:34:34;97903.56;;;14.77;72.72
9423;BME280;65863;49.506;10.400;2023-07-13T03:37:18;97914.03;;;14.67;72.95
9423;BME280;65863;49.506;10.400;2023-07-13T03:40:02;97915.19;;;14.82;72.78
9423;BME280;65863;49.506;10.400;2023-07-13T03:42:48;97910.03;;;14.70;72.98
9423;BME280;65863;49.506;10.400;2023-07-13T03:45:37;97934.78;;;14.79;73.23
9423;BME280;65863;49.506;10.400;2023-07-13T03:48:22;97918.19;;;14.66;73.64
9423;BME280;65863;49.506;10.400;2023-07-13T03:51:21;97952.66;;;14.82;73.78
9423;BME280;65863;49.506;10.400;2023-07-13T03:54:05;97889.31;;;14.40;74.32
9423;BME280;65863;49.506;10.400;2023-07-13T03:56:50;97959.41;;;14.69;74.45
9423;BME280;65863;49.506;10.400;2023-07-13T03:59:35;97987.13;;;14.80;74.82
9423;BME280;65863;49.506;10.400;2023-07-13T04:02:19;97910.22;;;14.20;74.82
9423;BME280;65863;49.506;10.400;2023-07-13T04:05:04;97971.28;;;14.68;74.82
9423;BME280;65863;49.506;10.400;2023-07-13T04:07:48;97947.06;;;14.57;74.38
9423;BME280;65863;49.506;10.400;2023-07-13T04:10:32;97992.28;;;14.92;74.09
9423;BME280;65863;49.506;10.400;2023-07-13T04:13:16;97993.13;;;14.85;73.79
9423;BME280;65863;49.506;10.400;2023-07-13T04:16:00;97977.41;;;14.74;73.98
9423;BME280;65863;49.506;10.400;2023-07-13T04:18:45;98008.06;;;14.95;74.14
9423;BME280;65863;49.506;10.400;2023-07-13T04:21:48;97968.78;;;14.72;74.34
9423;BME280;65863;49.506;10.400;2023-07-13T04:24:32;98009.63;;;15.06;73.86
9423;BME280;65863;49.506;10.400;2023-07-13T04:27:16;97994.06;;;15.14;73.88
9423;BME280;65863;49.506;10.400;2023-07-13T04:30:00;97980.97;;;15.19;73.03
9423;BME280;65863;49.506;10.400;2023-07-13T04:32:44;98006.75;;;15.50;72.67
9423;BME280;65863;49.506;10.400;2023-07-13T04:35:28;97987.94;;;15.73;72.27
9423;BME280;65863;49.506;10.400;2023-07-13T04:38:12;97932.03;;;15.54;71.45
9423;BME280;65863;49.506;10.400;2023-07-13T04:41:00;97993.88;;;16.14;70.64
9423;BME280;65863;49.506;10.400;2023-07-13T04:44:03;98004.47;;;16.33;69.33
9423;BME280;65863;49.506;10.400;2023-07-13T04:46:47;98038.81;;;16.76;68.62
9423;BME280;65863;49.506;10.400;2023-07-13T04:49:47;97954.88;;;16.42;67.68
9423;BME280;65863;49.506;10.400;2023-07-13T04:52:31;98017.81;;;16.89;66.88
9423;BME280;65863;49.506;10.400;2023-07-13T04:55:18;98049.59;;;17.17;66.25
9423;BME280;65863;49.506;10.400;2023-07-13T04:58:02;98032.88;;;17.11;65.89
9423;BME280;65863;49.506;10.400;2023-07-13T05:00:47;98068.63;;;17.46;66.20
9423;BME280;65863;49.506;10.400;2023-07-13T05:03:50;97925.03;;;16.80;66.42
9423;BME280;65863;49.506;10.400;2023-07-13T05:06:34;98041.16;;;17.48;65.91
9423;BME280;65863;49.506;10.400;2023-07-13T05:09:18;97973.47;;;17.03;65.15
9423;BME280;65863;49.506;10.400;2023-07-13T05:12:02;98034.00;;;17.47;63.75
9423;BME280;65863;49.506;10.400;2023-07-13T05:14:47;98065.44;;;17.71;62.27
9423;BME280;65863;49.506;10.400;2023-07-13T05:17:33;98027.03;;;17.70;61.37
9423;BME280;65863;49.506;10.400;2023-07-13T05:20:18;98060.13;;;17.97;60.37
9423;BME280;65863;49.506;10.400;2023-07-13T05:23:02;98015.69;;;17.70;59.92
9423;BME280;65863;49.506;10.400;2023-07-13T05:25:46;98033.69;;;17.94;59.53
9423;BME280;65863;49.506;10.400;2023-07-13T05:28:31;98050.25;;;18.29;59.09
9423;BME280;65863;49.506;10.400;2023-07-13T05:31:16;98068.06;;;18.51;58.62
9423;BME280;65863;49.506;10.400;2023-07-13T05:34:00;98048.66;;;18.48;57.83
9423;BME280;65863;49.506;10.400;2023-07-13T05:37:04;98037.28;;;18.48;56.71
9423;BME280;65863;49.506;10.400;2023-07-13T05:39:48;98022.53;;;19.16;57.03
9423;BME280;65863;49.506;10.400;2023-07-13T05:42:32;98061.28;;;20.61;54.61
9423;BME280;65863;49.506;10.400;2023-07-13T05:45:16;98006.28;;;21.62;50.81
9423;BME280;65863;49.506;10.400;2023-07-13T05:48:15;98064.13;;;22.58;48.36
9423;BME280;65863;49.506;10.400;2023-07-13T05:51:00;98028.03;;;23.24;46.55
9423;BME280;65863;49.506;10.400;2023-07-13T05:53:44;98040.28;;;23.57;44.45
9423;BME280;65863;49.506;10.400;2023-07-13T05:56:29;98056.34;;;24.60;43.07
9423;BME280;65863;49.506;10.400;2023-07-13T05:59:38;98049.34;;;24.31;41.85
9423;BME280;65863;49.506;10.400;2023-07-13T06:02:22;98043.44;;;23.17;42.85
9423;BME280;65863;49.506;10.400;2023-07-13T06:05:07;98068.06;;;21.83;44.87
9423;BME280;65863;49.506;10.400;2023-07-13T06:08:10;98012.44;;;20.55;47.41
9423;BME280;65863;49.506;10.400;2023-07-13T06:10:54;98052.13;;;20.39;49.02
9423;BME280;65863;49.506;10.400;2023-07-13T06:13:57;98074.00;;;21.87;48.51
9423;BME280;65863;49.506;10.400;2023-07-13T06:16:44;98007.03;;;22.60;45.29
9423;BME280;65863;49.506;10.400;2023-07-13T06:19:29;98050.75;;;23.06;43.28
9423;BME280;65863;49.506;10.400;2023-07-13T06:22:13;98059.97;;;22.19;43.99
9423;BME280;65863;49.506;10.400;2023-07-13T06:24:57;98016.81;;;22.13;45.65
9423;BME280;65863;49.506;10.400;2023-07-13T06:27:50;98023.44;;;23.49;43.22
9423;BME280;65863;49.506;10.400;2023-07-13T06:30:34;98057.28;;;23.52;42.01
9423;BME280;65863;49.506;10.400;2023-07-13T06:33:18;98029.94;;;22.46;42.64
9423;BME280;65863;49.506;10.400;2023-07-13T06:36:04;98022.56;;;21.59;44.87
9423;BME280;65863;49.506;10.400;2023-07-13T06:38:48;98072.28;;;23.21;44.86
9423;BME280;65863;49.506;10.400;2023-07-13T06:41:32;98085.59;;;23.76;42.18
9423;BME280;65863;49.506;10.400;2023-07-13T06:44:16;98106.06;;;22.39;43.42
9423;BME280;65863;49.506;10.400;2023-07-13T06:47:00;98064.00;;;21.60;45.22
9423;BME280;65863;49.506;10.400;2023-07-13T06:49:44;98083.84;;;21.84;46.29
9423;BME280;65863;49.506;10.400;2023-07-13T06:52:28;98071.16;;;21.73;45.88
9423;BME280;65863;49.506;10.400;2023-07-13T07:00:29;98091.78;;;22.53;46.57
9423;BME280;65863;49.506;10.400;2023-07-13T07:03:13;98080.81;;;22.91;45.16
9423;BME280;65863;49.506;10.400;2023-07-13T07:06:17;98099.78;;;22.15;44.77
9423;BME280;65863;49.506;10.400;2023-07-13T07:09:01;98046.25;;;21.76;45.88
9423;BME280;65863;49.506;10.400;2023-07-13T07:11:45;98080.97;;;22.38;45.17
9423;BME280;65863;49.506;10.400;2023-07-13T07:14:30;98093.78;;;22.37;45.22
9423;BME280;65863;49.506;10.400;2023-07-13T07:17:14;98104.28;;;23.47;44.41
9423;BME280;65863;49.506;10.400;2023-07-13T07:19:58;98091.75;;;24.00;42.30
9423;BME280;65863;49.506;10.400;2023-07-13T07:22:42;98060.97;;;23.39;42.10
9423;BME280;65863;49.506;10.400;2023-07-13T07:25:26;98071.84;;;22.69;42.87
9423;BME280;65863;49.506;10.400;2023-07-13T07:28:12;98126.28;;;21.90;44.82
9423;BME280;65863;49.506;10.400;2023-07-13T07:30:58;98120.28;;;21.46;46.68
9423;BME280;65863;49.506;10.400;2023-07-13T07:33:42;98087.53;;;21.47;47.49
9423;BME280;65863;49.506;10.400;2023-07-13T07:36:26;98120.53;;;22.15;46.97
9423;BME280;65863;49.506;10.400;2023-07-13T07:39:11;98110.91;;;21.83;46.34
9423;BME280;65863;49.506;10.400;2023-07-13T07:41:55;98137.84;;;22.06;46.56
9423;BME280;65863;49.506;10.400;2023-07-13T07:44:40;98133.97;;;22.13;46.28
9423;BME280;65863;49.506;10.400;2023-07-13T07:47:24;98098.84;;;22.24;45.86
9423;BME280;65863;49.506;10.400;2023-07-13T07:50:09;98125.41;;;22.27;45.05
9423;BME280;65863;49.506;10.400;2023-07-13T07:52:53;98111.66;;;22.51;45.21
9423;BME280;65863;49.506;10.400;2023-07-13T07:55:39;98121.66;;;22.50;45.07
9423;BME280;65863;49.506;10.400;2023-07-13T07:58:23;98129.69;;;22.81;44.57
9423;BME280;65863;49.506;10.400;2023-07-13T08:01:07;98117.81;;;22.45;43.19
9423;BME280;65863;49.506;10.400;2023-07-13T08:03:51;98139.94;;;22.86;43.31
9423;BME280;65863;49.506;10.400;2023-07-13T08:06:35;98110.31;;;22.52;42.09
9423;BME280;65863;49.506;10.400;2023-07-13T08:09:18;98141.13;;;22.67;42.07
9423;BME280;65863;49.506;10.400;2023-07-13T08:12:03;98105.22;;;22.64;42.60
9423;BME280;65863;49.506;10.400;2023-07-13T08:14:50;98144.41;;;22.90;41.81
9423;BME280;65863;49.506;10.400;2023-07-13T08:17:37;98020.59;;;22.31;41.95
9423;BME280;65863;49.506;10.400;2023-07-13T08:20:21;98070.94;;;22.94;41.19
9423;BME280;65863;49.506;10.400;2023-07-13T08:23:06;98116.72;;;23.22;40.62
9423;BME280;65863;49.506;10.400;2023-07-13T08:25:51;98126.44;;;23.31;40.92
9423;BME280;65863;49.506;10.400;2023-07-13T08:28:35;98109.28;;;23.17;39.78
9423;BME280;65863;49.506;10.400;2023-07-13T08:31:20;98123.25;;;23.25;40.04
9423;BME280;65863;49.506;10.400;2023-07-13T08:34:04;98103.59;;;22.89;39.27
9423;BME280;65863;49.506;10.400;2023-07-13T08:36:48;98129.75;;;23.55;39.59
9423;BME280;65863;49.506;10.400;2023-07-13T08:39:32;98130.03;;;23.61;39.09
9423;BME280;65863;49.506;10.400;2023-07-13T08:48:07;98136.84;;;24.00;38.58
9423;BME280;65863;49.506;10.400;2023-07-13T08:54:00;98146.44;;;23.75;39.13
9423;BME280;65863;49.506;10.400;2023-07-13T08:56:46;98135.47;;;23.55;39.82
9423;BME280;65863;49.506;10.400;2023-07-13T08:59:32;98128.94;;;23.68;38.29
9423;BME280;65863;49.506;10.400;2023-07-13T09:13:18;98154.09;;;24.16;37.81
9423;BME280;65863;49.506;10.400;2023-07-13T09:16:04;98117.94;;;24.09;37.93
9423;BME280;65863;49.506;10.400;2023-07-13T09:18:52;98073.81;;;24.16;37.30
9423;BME280;65863;49.506;10.400;2023-07-13T09:21:40;98098.69;;;24.27;37.11
9423;BME280;65863;49.506;10.400;2023-07-13T09:27:17;98141.28;;;24.51;36.91
9423;BME280;65863;49.506;10.400;2023-07-13T09:32:59;98134.19;;;25.02;37.52
9423;BME280;65863;49.506;10.400;2023-07-13T09:35:44;98158.09;;;25.24;36.45
9423;BME280;65863;49.506;10.400;2023-07-13T09:38:29;98045.06;;;24.48;35.63
9423;BME280;65863;49.506;10.400;2023-07-13T09:41:29;98146.91;;;25.15;36.14
9423;BME280;65863;49.506;10.400;2023-07-13T09:44:26;98127.78;;;24.53;36.38
9423;BME280;65863;49.506;10.400;2023-07-13T09:47:20;98152.22;;;24.22;37.43
9423;BME280;65863;49.506;10.400;2023-07-13T09:50:10;97978.75;;;23.58;36.99
9423;BME280;65863;49.506;10.400;2023-07-13T09:53:01;98149.06;;;24.80;37.29
9423;BME280;65863;49.506;10.400;2023-07-13T09:55:47;98127.50;;;25.31;36.67
9423;BME280;65863;49.506;10.400;2023-07-13T09:58:34;98121.13;;;25.51;36.00
9423;BME280;65863;49.506;10.400;2023-07-13T10:01:46;98076.31;;;24.57;36.71
9423;BME280;65863;49.506;10.400;2023-07-13T10:04:33;98138.28;;;25.49;35.83
9423;BME280;65863;49.506;10.400;2023-07-13T10:07:22;98135.63;;;25.73;34.94
9423;BME280;65863;49.506;10.400;2023-07-13T10:10:20;98067.50;;;25.03;34.84
9423;BME280;65863;49.506;10.400;2023-07-13T10:13:08;97995.00;;;23.85;36.03
9423;BME280;65863;49.506;10.400;2023-07-13T10:16:07;98002.25;;;22.64;37.62
9423;BME280;65863;49.506;10.400;2023-07-13T10:18:58;98139.09;;;23.71;38.44
9423;BME280;65863;49.506;10.400;2023-07-13T10:22:02;98015.84;;;23.24;37.24
9423;BME280;65863;49.506;10.400;2023-07-13T10:24:54;98072.09;;;23.79;37.33
9423;BME280;65863;49.506;10.400;2023-07-13T10:27:39;98130.88;;;24.26;37.32
9423;BME280;65863;49.506;10.400;2023-07-13T10:30:27;98138.16;;;24.77;37.19
9423;BME280;65863;49.506;10.400;2023-07-13T10:33:13;98127.44;;;25.47;35.85
9423;BME280;65863;49.506;10.400;2023-07-13T10:36:10;98136.66;;;25.43;35.58
9423;BME280;65863;49.506;10.400;2023-07-13T10:38:57;98122.25;;;25.25;36.01
9423;BME280;65863;49.506;10.400;2023-07-13T10:41:44;98121.84;;;25.87;35.47
9423;BME280;65863;49.506;10.400;2023-07-13T10:44:31;98131.88;;;25.50;35.78
9423;BME280;65863;49.506;10.400;2023-07-13T10:47:16;98140.50;;;25.32;36.06
9423;BME280;65863;49.506;10.400;2023-07-13T10:50:02;98152.19;;;25.20;35.76
9423;BME280;65863;49.506;10.400;2023-07-13T10:52:49;98139.41;;;25.41;36.08
9423;BME280;65863;49.506;10.400;2023-07-13T10:55:41;98111.22;;;26.30;35.56
9423;BME280;65863;49.506;10.400;2023-07-13T10:58:42;98086.00;;;26.08;34.14
9423;BME280;65863;49.506;10.400;2023-07-13T11:01:40;98029.31;;;25.35;34.42
9423;BME280;65863;49.506;10.400;2023-07-13T11:04:25;98109.22;;;26.55;34.13
9423;BME280;65863;49.506;10.400;2023-07-13T11:07:31;98135.66;;;27.11;33.72
9423;BME280;65863;49.506;10.400;2023-07-13T11:11:01;98126.19;;;27.29;33.78
9423;BME280;65863;49.506;10.400;2023-07-13T11:16:42;98051.06;;;27.23;33.37
9423;BME280;65863;49.506;10.400;2023-07-13T11:19:28;98121.69;;;27.24;32.16
9423;BME280;65863;49.506;10.400;2023-07-13T11:22:25;98110.09;;;26.59;33.11
9423;BME280;65863;49.506;10.400;2023-07-13T11:25:29;98111.81;;;26.87;33.60
9423;BME280;65863;49.506;10.400;2023-07-13T11:28:22;98092.72;;;26.97;33.32
9423;BME280;65863;49.506;10.400;2023-07-13T11:31:14;98056.47;;;26.28;33.30
9423;BME280;65863;49.506;10.400;2023-07-13T11:33:59;98096.25;;;25.95;34.36
9423;BME280;65863;49.506;10.400;2023-07-13T11:36:44;98103.59;;;25.81;34.69
9423;BME280;65863;49.506;10.400;2023-07-13T11:39:34;98087.72;;;25.59;34.88
9423;BME280;65863;49.506;10.400;2023-07-13T11:42:20;98078.81;;;25.71;34.75
9423;BME280;65863;49.506;10.400;2023-07-13T11:45:18;98105.69;;;26.36;34.67
9423;BME280;65863;49.506;10.400;2023-07-13T11:48:03;98111.25;;;25.74;34.61
9423;BME280;65863;49.506;10.400;2023-07-13T11:50:55;98107.16;;;25.61;35.12
9423;BME280;65863;49.506;10.400;2023-07-13T11:53:46;98103.22;;;25.52;34.78
9423;BME280;65863;49.506;10.400;2023-07-13T11:56:31;98105.94;;;25.66;35.09
9423;BME280;65863;49.506;10.400;2023-07-13T11:59:17;98110.25;;;25.85;34.77
9423;BME280;65863;49.506;10.400;2023-07-13T12:02:02;98074.63;;;26.12;33.63
9423;BME280;65863;49.506;10.400;2023-07-13T12:04:47;98090.47;;;26.54;33.00
9423;BME280;65863;49.506;10.400;2023-07-13T12:07:33;98092.31;;;26.65;33.35
9423;BME280;65863;49.506;10.400;2023-07-13T12:10:21;98111.19;;;26.90;33.21
9423;BME280;65863;49.506;10.400;2023-07-13T12:13:08;98098.09;;;26.45;32.99
9423;BME280;65863;49.506;10.400;2023-07-13T12:15:53;98109.84;;;25.93;33.97
9423;BME280;65863;49.506;10.400;2023-07-13T12:18:39;98110.63;;;25.39;34.49
9423;BME280;65863;49.506;10.400;2023-07-13T12:21:30;98110.97;;;25.48;35.16
9423;BME280;65863;49.506;10.400;2023-07-13T12:24:16;98112.25;;;25.44;34.13
9423;BME280;65863;49.506;10.400;2023-07-13T12:27:03;98044.38;;;25.17;34.42
9423;BME280;65863;49.506;10.400;2023-07-13T12:29:56;98091.16;;;26.12;34.43
9423;BME280;65863;49.506;10.400;2023-07-13T12:32:41;98124.16;;;26.69;34.06
9423;BME280;65863;49.506;10.400;2023-07-13T12:35:27;98082.13;;;26.62;33.76
9423;BME280;65863;49.506;10.400;2023-07-13T12:38:16;98087.19;;;25.83;33.23
9423;BME280;65863;49.506;10.400;2023-07-13T12:41:01;98098.03;;;26.23;33.87
9423;BME280;65863;49.506;10.400;2023-07-13T12:43:45;98114.31;;;26.36;33.76
9423;BME280;65863;49.506;10.400;2023-07-13T12:46:30;98095.75;;;25.63;33.64
9423;BME280;65863;49.506;10.400;2023-07-13T12:49:14;98116.22;;;25.53;34.42
9423;BME280;65863;49.506;10.400;2023-07-13T12:52:01;98009.00;;;25.13;34.49
9423;BME280;65863;49.506;10.400;2023-07-13T12:54:57;98121.56;;;26.17;34.10
9423;BME280;65863;49.506;10.400;2023-07-13T12:57:49;98134.44;;;26.16;34.55
9423;BME280;65863;49.506;10.400;2023-07-13T13:00:35;98120.31;;;26.83;33.93
9423;BME280;65863;49.506;10.400;2023-07-13T13:03:40;98110.91;;;26.62;32.62
9423;BME280;65863;49.506;10.400;2023-07-13T13:06:28;98116.72;;;27.04;33.20
9423;BME280;65863;49.506;10.400;2023-07-13T13:09:15;98091.00;;;26.88;32.35
9423;BME280;65863;49.506;10.400;2023-07-13T13:11:59;98125.53;;;26.28;33.07
9423;BME280;65863;49.506;10.400;2023-07-13T13:14:43;98059.50;;;25.74;34.08
9423;BME280;65863;49.506;10.400;2023-07-13T13:17:29;98115.66;;;26.33;34.06
9423;BME280;65863;49.506;10.400;2023-07-13T13:20:18;98107.47;;;26.45;33.22
9423;BME280;65863;49.506;10.400;2023-07-13T13:23:04;98119.34;;;26.56;33.35
9423;BME280;65863;49.506;10.400;2023-07-13T13:25:50;97901.25;;;24.55;33.53
9423;BME280;65863;49.506;10.400;2023-07-13T13:28:34;98077.91;;;26.23;34.30
9423;BME280;65863;49.506;10.400;2023-07-13T13:31:18;97992.09;;;25.97;32.52
9423;BME280;65863;49.506;10.400;2023-07-13T13:34:08;98048.13;;;26.98;32.33
9423;BME280;65863;49.506;10.400;2023-07-13T13:36:54;98118.47;;;27.13;31.96
9423;BME280;65863;49.506;10.400;2023-07-13T13:39:38;98108.72;;;26.40;31.91
9423;BME280;65863;49.506;10.400;2023-07-13T13:42:22;98108.03;;;25.84;32.71
9423;BME280;65863;49.506;10.400;2023-07-13T13:45:12;98110.53;;;25.73;33.52
9423;BME280;65863;49.506;10.400;2023-07-13T13:47:56;98054.38;;;25.70;33.88
9423;BME280;65863;49.506;10.400;2023-07-13T13:50:40;98103.91;;;26.67;32.35
9423;BME280;65863;49.506;10.400;2023-07-13T13:53:24;98089.09;;;26.55;31.70
9423;BME280;65863;49.506;10.400;2023-07-13T13:56:08;98100.75;;;26.59;31.76
9423;BME280;65863;49.506;10.400;2023-07-13T13:58:52;98122.53;;;26.84;32.04
9423;BME280;65863;49.506;10.400;2023-07-13T14:01:37;98113.97;;;27.08;32.08
9423;BME280;65863;49.506;10.400;2023-07-13T14:04:22;98110.66;;;27.38;31.64
9423;BME280;65863;49.506;10.400;2023-07-13T14:07:07;98100.13;;;27.25;31.66
9423;BME280;65863;49.506;10.400;2023-07-13T14:09:53;98118.94;;;27.28;32.00
9423;BME280;65863;49.506;10.400;2023-07-13T14:12:37;98089.59;;;27.11;30.91
9423;BME280;65863;49.506;10.400;2023-07-13T14:15:27;98051.75;;;26.57;32.10
9423;BME280;65863;49.506;10.400;2023-07-13T14:18:12;98022.06;;;25.52;33.15
9423;BME280;65863;49.506;10.400;2023-07-13T14:21:01;98100.59;;;26.15;33.50
9423;BME280;65863;49.506;10.400;2023-07-13T14:23:46;98105.91;;;26.83;33.24
9423;BME280;65863;49.506;10.400;2023-07-13T14:26:35;98018.34;;;26.48;32.90
9423;BME280;65863;49.506;10.400;2023-07-13T14:29:20;98111.72;;;26.85;33.88
9423;BME280;65863;49.506;10.400;2023-07-13T14:32:10;98048.22;;;26.58;33.17
9423;BME280;65863;49.506;10.400;2023-07-13T14:34:54;98110.63;;;26.34;33.80
9423;BME280;65863;49.506;10.400;2023-07-13T14:37:39;98112.94;;;25.99;34.63
9423;BME280;65863;49.506;10.400;2023-07-13T14:40:30;98013.84;;;24.90;34.45
9423;BME280;65863;49.506;10.400;2023-07-13T14:43:16;98125.31;;;25.48;35.41
9423;BME280;65863;49.506;10.400;2023-07-13T14:46:00;98112.84;;;26.15;35.40
9423;BME280;65863;49.506;10.400;2023-07-13T14:48:44;98076.34;;;26.40;34.22
9423;BME280;65863;49.506;10.400;2023-07-13T14:51:28;98102.81;;;26.76;33.54
9423;BME280;65863;49.506;10.400;2023-07-13T14:54:13;98067.22;;;26.68;32.62
9423;BME280;65863;49.506;10.400;2023-07-13T14:56:57;98111.44;;;26.56;33.25
9423;BME280;65863;49.506;10.400;2023-07-13T14:59:41;98083.88;;;25.91;34.16
9423;BME280;65863;49.506;10.400;2023-07-13T15:02:34;98106.22;;;25.92;34.86
9423;BME280;65863;49.506;10.400;2023-07-13T15:05:24;98093.47;;;25.41;35.20
9423;BME280;65863;49.506;10.400;2023-07-13T15:08:09;98101.59;;;25.47;34.81
9423;BME280;65863;49.506;10.400;2023-07-13T15:10:54;98086.56;;;25.31;35.08
9423;BME280;65863;49.506;10.400;2023-07-13T15:13:41;98103.16;;;25.88;35.28
9423;BME280;65863;49.506;10.400;2023-07-13T15:16:28;98103.34;;;25.92;34.47
9423;BME280;65863;49.506;10.400;2023-07-13T15:19:12;98073.78;;;25.34;34.81
9423;BME280;65863;49.506;10.400;2023-07-13T15:21:57;98090.94;;;25.88;34.58
9423;BME280;65863;49.506;10.400;2023-07-13T15:24:41;98091.31;;;25.24;34.76